createdAt,value
2017-11-12T00:00:25.116Z,0.00
2017-11-12T00:01:25.112Z,0.00
2017-11-12T00:02:25.113Z,0.00
2017-11-12T00:03:25.236Z,0.00
2017-11-12T00:04:25.117Z,0.00
2017-11-12T00:05:25.148Z,0.00
2017-11-12T00:06:25.124Z,0.00
2017-11-12T00:07:25.163Z,0.00
2017-11-12T00:08:25.131Z,0.00
2017-11-12T00:09:25.139Z,0.00
2017-11-12T00:10:25.186Z,0.00
2017-11-12T00:11:25.143Z,0.00
2017-11-12T00:12:25.214Z,0.00
2017-11-12T00:13:25.156Z,0.00
2017-11-12T00:14:25.165Z,0.00
2017-11-12T00:15:25.224Z,0.00
2017-11-12T00:16:25.164Z,0.00
2017-11-12T00:17:25.163Z,0.00
2017-11-12T00:18:25.248Z,0.00
2017-11-12T00:19:25.182Z,0.00
2017-11-12T00:20:25.250Z,0.00
2017-11-12T00:21:25.187Z,0.00
2017-11-12T00:22:25.269Z,0.00
2017-11-12T00:23:25.194Z,0.00
2017-11-12T00:24:25.195Z,0.00
2017-11-12T00:25:25.288Z,0.00
2017-11-12T00:26:25.209Z,0.00
2017-11-12T00:27:25.217Z,0.00
2017-11-12T00:28:25.308Z,0.00
2017-11-12T00:29:25.231Z,0.00
2017-11-12T00:30:25.324Z,0.00
2017-11-12T00:31:25.227Z,0.00
2017-11-12T00:32:25.237Z,0.00
2017-11-12T00:33:25.240Z,0.00
2017-11-12T00:34:25.245Z,0.00
2017-11-12T00:35:25.364Z,0.00
2017-11-12T00:36:25.250Z,0.00
2017-11-12T00:37:25.270Z,0.00
2017-11-12T00:38:25.282Z,0.00
2017-11-12T00:39:25.265Z,0.00
2017-11-12T00:40:25.290Z,0.00
2017-11-12T00:41:25.269Z,0.00
2017-11-12T00:42:25.309Z,0.00
2017-11-12T00:43:25.291Z,0.00
2017-11-12T00:44:25.323Z,0.00
2017-11-12T00:45:25.285Z,0.00
2017-11-12T00:46:25.294Z,0.00
2017-11-12T00:47:25.289Z,0.00
2017-11-12T00:48:25.340Z,0.00
2017-11-12T00:49:25.309Z,0.00
2017-11-12T00:50:25.353Z,0.00
2017-11-12T00:51:25.313Z,0.00
2017-11-12T00:52:25.371Z,0.00
2017-11-12T00:53:25.317Z,0.00
2017-11-12T00:54:25.325Z,0.00
2017-11-12T00:55:25.390Z,0.00
2017-11-12T00:56:25.330Z,0.00
2017-11-12T00:57:25.403Z,0.00
2017-11-12T00:58:25.339Z,0.00
2017-11-12T00:59:25.348Z,0.00
2017-11-12T01:00:25.352Z,0.00
2017-11-12T01:01:25.438Z,0.00
2017-11-12T01:02:25.354Z,0.00
2017-11-12T01:03:25.447Z,0.00
2017-11-12T01:04:25.370Z,0.00
2017-11-12T01:05:25.470Z,0.00
2017-11-12T01:06:25.368Z,0.00
2017-11-12T01:07:25.474Z,0.00
2017-11-12T01:08:25.376Z,0.00
2017-11-12T01:09:25.385Z,0.00
2017-11-12T01:10:25.493Z,0.00
2017-11-12T01:11:25.399Z,0.00
2017-11-12T01:12:25.511Z,0.00
2017-11-12T01:13:25.398Z,0.00
2017-11-12T01:14:25.408Z,0.00
2017-11-12T01:15:25.415Z,0.00
2017-11-12T01:16:25.414Z,0.00
2017-11-12T01:17:25.437Z,0.00
2017-11-12T01:18:25.415Z,0.00
2017-11-12T01:19:25.445Z,0.00
2017-11-12T01:20:25.460Z,0.00
2017-11-12T01:21:25.433Z,0.00
2017-11-12T01:22:25.434Z,0.00
2017-11-12T01:23:25.480Z,0.00
2017-11-12T01:24:25.449Z,0.00
2017-11-12T01:25:25.489Z,0.00
2017-11-12T01:26:25.451Z,0.00
2017-11-12T01:27:25.505Z,0.00
2017-11-12T01:28:25.461Z,0.00
2017-11-12T01:29:25.469Z,0.00
2017-11-12T01:30:25.522Z,0.00
2017-11-12T01:31:25.474Z,0.00
2017-11-12T01:32:25.537Z,0.00
2017-11-12T01:33:25.478Z,0.00
2017-11-12T01:34:25.493Z,0.00
2017-11-12T01:35:25.559Z,0.00
2017-11-12T01:36:25.492Z,0.00
2017-11-12T01:37:25.489Z,0.00
2017-11-12T01:38:25.494Z,0.00
2017-11-12T01:39:25.503Z,0.00
2017-11-12T01:40:25.507Z,0.00
2017-11-12T01:41:25.513Z,0.00
2017-11-12T01:42:25.602Z,0.00
2017-11-12T01:43:25.523Z,0.00
2017-11-12T01:44:25.538Z,0.00
2017-11-12T01:45:25.626Z,0.00
2017-11-12T01:46:25.533Z,0.00
2017-11-12T01:47:25.639Z,0.00
2017-11-12T01:48:25.540Z,0.00
2017-11-12T01:49:25.549Z,0.00
2017-11-12T01:50:25.663Z,0.00
2017-11-12T01:51:25.557Z,0.00
2017-11-12T01:52:25.551Z,0.00
2017-11-12T01:53:25.566Z,0.00
2017-11-12T01:54:25.569Z,0.00
2017-11-12T01:55:25.650Z,0.00
2017-11-12T01:56:25.571Z,0.00
2017-11-12T01:57:25.661Z,0.00
2017-11-12T01:58:25.582Z,0.00
2017-11-12T01:59:25.593Z,0.00
2017-11-12T02:00:26.608Z,0.00
2017-11-12T02:01:25.592Z,0.00
2017-11-12T02:02:25.695Z,0.00
2017-11-12T02:03:25.598Z,0.00
2017-11-12T02:04:25.608Z,0.00
2017-11-12T02:05:25.615Z,0.00
2017-11-12T02:06:25.611Z,0.00
2017-11-12T02:07:25.613Z,0.00
2017-11-12T02:08:25.617Z,0.00
2017-11-12T02:09:25.623Z,0.00
2017-11-12T02:10:25.645Z,0.00
2017-11-12T02:11:25.628Z,0.00
2017-11-12T02:12:25.666Z,0.00
2017-11-12T02:13:25.637Z,0.00
2017-11-12T02:14:25.644Z,0.00
2017-11-12T02:15:26.704Z,0.00
2017-11-12T02:16:25.655Z,0.00
2017-11-12T02:17:25.691Z,0.00
2017-11-12T02:18:25.655Z,0.00
2017-11-12T02:19:25.665Z,0.00
2017-11-12T02:20:25.670Z,0.00
2017-11-12T02:21:25.671Z,0.00
2017-11-12T02:22:25.675Z,0.00
2017-11-12T02:23:25.732Z,0.00
2017-11-12T02:24:25.680Z,0.00
2017-11-12T02:25:25.745Z,0.00
2017-11-12T02:26:25.703Z,0.00
2017-11-12T02:27:25.694Z,0.00
2017-11-12T02:28:25.699Z,0.00
2017-11-12T02:29:25.705Z,0.00
2017-11-12T02:30:25.739Z,0.00
2017-11-12T02:31:25.712Z,0.00
2017-11-12T02:32:25.775Z,0.00
2017-11-12T02:33:25.712Z,0.00
2017-11-12T02:34:25.726Z,0.00
2017-11-12T02:35:25.775Z,0.00
2017-11-12T02:36:25.730Z,0.00
2017-11-12T02:37:25.787Z,0.00
2017-11-12T02:38:25.743Z,0.00
2017-11-12T02:39:25.769Z,0.00
2017-11-12T02:40:25.810Z,0.00
2017-11-12T02:41:25.756Z,0.00
2017-11-12T02:42:25.819Z,0.00
2017-11-12T02:43:25.755Z,0.00
2017-11-12T02:44:25.766Z,0.00
2017-11-12T02:45:25.842Z,0.00
2017-11-12T02:46:25.773Z,0.00
2017-11-12T02:47:25.854Z,0.00
2017-11-12T02:48:25.778Z,0.00
2017-11-12T02:49:25.781Z,0.00
2017-11-12T02:50:25.876Z,0.00
2017-11-12T02:51:25.790Z,0.00
2017-11-12T02:52:25.888Z,0.00
2017-11-12T02:53:25.796Z,0.00
2017-11-12T02:54:25.804Z,0.00
2017-11-12T02:55:25.916Z,0.00
2017-11-12T02:56:25.812Z,0.00
2017-11-12T02:57:25.920Z,0.00
2017-11-12T02:58:25.812Z,0.00
2017-11-12T02:59:25.835Z,0.00
2017-11-12T03:00:25.823Z,0.00
2017-11-12T03:01:25.848Z,0.00
2017-11-12T03:02:25.829Z,0.00
2017-11-12T03:03:25.862Z,0.00
2017-11-12T03:04:25.846Z,0.00
2017-11-12T03:05:25.876Z,0.00
2017-11-12T03:06:25.846Z,0.00
2017-11-12T03:07:25.889Z,0.00
2017-11-12T03:08:25.850Z,0.00
2017-11-12T03:09:25.869Z,0.00
2017-11-12T03:10:25.872Z,0.00
2017-11-12T03:11:25.866Z,0.00
2017-11-12T03:12:25.923Z,0.00
2017-11-12T03:13:25.870Z,0.00
2017-11-12T03:14:25.938Z,0.00
2017-11-12T03:15:25.878Z,0.00
2017-11-12T03:16:25.951Z,0.00
2017-11-12T03:17:25.885Z,0.00
2017-11-12T03:18:25.964Z,0.00
2017-11-12T03:19:25.903Z,0.00
2017-11-12T03:20:25.980Z,0.00
2017-11-12T03:21:25.903Z,0.00
2017-11-12T03:22:25.995Z,0.00
2017-11-12T03:23:25.913Z,0.00
2017-11-12T03:24:26.004Z,0.00
2017-11-12T03:25:25.924Z,0.00
2017-11-12T03:26:26.018Z,0.00
2017-11-12T03:27:25.923Z,0.00
2017-11-12T03:28:26.034Z,0.00
2017-11-12T03:29:25.935Z,0.00
2017-11-12T03:30:26.046Z,0.00
2017-11-12T03:31:25.943Z,0.00
2017-11-12T03:32:26.057Z,0.00
2017-11-12T03:33:25.952Z,0.00
2017-11-12T03:34:25.967Z,0.00
2017-11-12T03:35:25.979Z,0.00
2017-11-12T03:36:25.953Z,0.00
2017-11-12T03:37:25.994Z,0.00
2017-11-12T03:38:25.972Z,0.00
2017-11-12T03:39:25.975Z,0.00
2017-11-12T03:40:25.984Z,0.00
2017-11-12T03:41:26.017Z,0.00
2017-11-12T03:42:25.984Z,0.00
2017-11-12T03:43:26.035Z,0.00
2017-11-12T03:44:25.994Z,0.00
2017-11-12T03:45:26.050Z,0.00
2017-11-12T03:46:26.001Z,0.00
2017-11-12T03:47:26.061Z,0.00
2017-11-12T03:48:26.005Z,0.00
2017-11-12T03:49:26.012Z,0.00
2017-11-12T03:50:26.083Z,0.00
2017-11-12T03:51:26.029Z,0.00
2017-11-12T03:52:26.095Z,0.00
2017-11-12T03:53:26.026Z,0.00
2017-11-12T03:54:26.030Z,0.00
2017-11-12T03:55:26.039Z,0.00
2017-11-12T03:56:26.038Z,0.00
2017-11-12T03:57:26.098Z,0.00
2017-11-12T03:58:26.047Z,0.00
2017-11-12T03:59:26.055Z,0.00
2017-11-12T04:00:26.121Z,0.00
2017-11-12T04:01:26.053Z,0.00
2017-11-12T04:02:26.135Z,0.00
2017-11-12T04:03:26.063Z,0.00
2017-11-12T04:04:26.069Z,0.00
2017-11-12T04:05:26.159Z,0.00
2017-11-12T04:06:26.073Z,0.00
2017-11-12T04:07:26.165Z,0.00
2017-11-12T04:08:26.083Z,0.00
2017-11-12T04:09:26.085Z,0.00
2017-11-12T04:10:26.087Z,0.00
2017-11-12T04:11:26.199Z,0.00
2017-11-12T04:12:26.100Z,0.00
2017-11-12T04:13:26.207Z,0.00
2017-11-12T04:14:26.112Z,0.00
2017-11-12T04:15:28.171Z,0.00
2017-11-12T04:16:26.113Z,0.00
2017-11-12T04:17:26.135Z,0.00
2017-11-12T04:18:26.117Z,0.00
2017-11-12T04:19:26.125Z,0.00
2017-11-12T04:20:26.153Z,0.00
2017-11-12T04:21:26.133Z,0.00
2017-11-12T04:22:26.170Z,0.00
2017-11-12T04:23:26.170Z,0.00
2017-11-12T04:24:26.145Z,0.00
2017-11-12T04:25:27.207Z,0.00
2017-11-12T04:26:26.147Z,0.00
2017-11-12T04:27:26.197Z,0.00
2017-11-12T04:28:26.160Z,0.00
2017-11-12T04:29:26.166Z,0.00
2017-11-12T04:30:27.175Z,0.00
2017-11-12T04:31:26.166Z,0.00
2017-11-12T04:32:26.243Z,0.00
2017-11-12T04:33:26.176Z,0.00
2017-11-12T04:34:26.190Z,0.00
2017-11-12T04:35:26.285Z,0.00
2017-11-12T04:36:26.200Z,0.00
2017-11-12T04:37:26.294Z,0.00
2017-11-12T04:38:26.194Z,0.00
2017-11-12T04:39:26.205Z,0.00
2017-11-12T04:40:26.318Z,0.00
2017-11-12T04:41:26.204Z,0.00
2017-11-12T04:42:26.234Z,0.00
2017-11-12T04:43:26.214Z,0.00
2017-11-12T04:44:26.223Z,0.00
2017-11-12T04:45:26.247Z,0.00
2017-11-12T04:46:26.220Z,0.00
2017-11-12T04:47:26.259Z,0.00
2017-11-12T04:48:26.232Z,0.00
2017-11-12T04:49:26.236Z,0.00
2017-11-12T04:50:26.279Z,0.00
2017-11-12T04:51:26.242Z,0.00
2017-11-12T04:52:26.250Z,0.00
2017-11-12T04:53:26.248Z,0.00
2017-11-12T04:54:26.252Z,0.00
2017-11-12T04:55:26.320Z,0.00
2017-11-12T04:56:26.272Z,0.00
2017-11-12T04:57:26.327Z,0.00
2017-11-12T04:58:26.271Z,0.00
2017-11-12T04:59:26.276Z,0.00
2017-11-12T05:00:26.349Z,0.00
2017-11-12T05:01:26.275Z,0.00
2017-11-12T05:02:26.364Z,0.00
2017-11-12T05:03:26.285Z,0.00
2017-11-12T05:04:26.296Z,0.00
2017-11-12T05:05:26.380Z,0.00
2017-11-12T05:06:26.290Z,0.00
2017-11-12T05:07:26.308Z,0.00
2017-11-12T05:08:26.306Z,0.00
2017-11-12T05:09:26.410Z,0.00
2017-11-12T05:10:26.317Z,0.00
2017-11-12T05:11:26.371Z,0.00
2017-11-12T05:12:26.320Z,0.00
2017-11-12T05:13:26.382Z,0.00
2017-11-12T05:14:26.337Z,0.00
2017-11-12T05:15:26.404Z,0.00
2017-11-12T05:16:26.343Z,0.00
2017-11-12T05:17:26.412Z,0.00
2017-11-12T05:18:26.349Z,0.00
2017-11-12T05:19:26.350Z,0.00
2017-11-12T05:20:26.435Z,0.00
2017-11-12T05:21:26.351Z,0.00
2017-11-12T05:22:26.358Z,0.00
2017-11-12T05:23:26.453Z,0.00
2017-11-12T05:24:26.363Z,0.00
2017-11-12T05:25:26.479Z,0.00
2017-11-12T05:26:26.370Z,0.00
2017-11-12T05:27:26.480Z,0.00
2017-11-12T05:28:26.379Z,0.00
2017-11-12T05:29:26.385Z,0.00
2017-11-12T05:30:26.398Z,0.00
2017-11-12T05:31:26.391Z,0.00
2017-11-12T05:32:26.411Z,0.00
2017-11-12T05:33:26.393Z,0.00
2017-11-12T05:34:26.401Z,0.00
2017-11-12T05:35:26.432Z,0.00
2017-11-12T05:36:26.413Z,0.00
2017-11-12T05:37:26.410Z,0.00
2017-11-12T05:38:26.445Z,0.00
2017-11-12T05:39:26.425Z,0.00
2017-11-12T05:40:26.466Z,0.00
2017-11-12T05:41:26.466Z,0.00
2017-11-12T05:42:26.479Z,0.00
2017-11-12T05:43:26.438Z,0.00
2017-11-12T05:44:26.448Z,0.00
2017-11-12T05:45:26.500Z,0.00
2017-11-12T05:46:26.452Z,0.00
2017-11-12T05:47:26.518Z,0.00
2017-11-12T05:48:26.453Z,0.00
2017-11-12T05:49:26.465Z,0.00
2017-11-12T05:50:26.536Z,0.00
2017-11-12T05:51:26.467Z,0.00
2017-11-12T05:52:26.468Z,0.00
2017-11-12T05:53:26.548Z,0.00
2017-11-12T05:54:26.477Z,0.00
2017-11-12T05:55:27.593Z,0.00
2017-11-12T05:56:26.485Z,0.00
2017-11-12T05:57:26.581Z,0.00
2017-11-12T05:58:26.493Z,0.00
2017-11-12T05:59:26.502Z,0.00
2017-11-12T06:00:26.601Z,0.00
2017-11-12T06:01:26.499Z,0.00
2017-11-12T06:02:26.517Z,0.00
2017-11-12T06:03:26.519Z,0.00
2017-11-12T06:04:26.516Z,0.00
2017-11-12T06:05:26.536Z,0.00
2017-11-12T06:06:26.511Z,0.00
2017-11-12T06:07:26.516Z,0.00
2017-11-12T06:08:26.553Z,0.00
2017-11-12T06:09:26.530Z,0.00
2017-11-12T06:10:27.594Z,0.00
2017-11-12T06:11:26.538Z,0.00
2017-11-12T06:12:26.559Z,0.00
2017-11-12T06:13:26.549Z,0.00
2017-11-12T06:14:26.545Z,0.00
2017-11-12T06:15:26.580Z,0.00
2017-11-12T06:16:26.553Z,0.00
2017-11-12T06:17:26.590Z,0.00
2017-11-12T06:18:26.557Z,0.00
2017-11-12T06:19:26.570Z,0.00
2017-11-12T06:20:26.605Z,0.00
2017-11-12T06:21:26.571Z,0.00
2017-11-12T06:22:26.580Z,0.00
2017-11-12T06:23:26.581Z,0.00
2017-11-12T06:24:26.642Z,0.00
2017-11-12T06:25:26.589Z,0.00
2017-11-12T06:26:26.609Z,0.00
2017-11-12T06:27:27.681Z,0.00
2017-11-12T06:28:26.594Z,0.00
2017-11-12T06:29:26.608Z,0.00
2017-11-12T06:30:26.678Z,0.00
2017-11-12T06:31:26.609Z,0.00
2017-11-12T06:32:26.690Z,0.00
2017-11-12T06:33:26.612Z,0.00
2017-11-12T06:34:26.624Z,0.00
2017-11-12T06:35:26.713Z,0.00
2017-11-12T06:36:26.619Z,0.00
2017-11-12T06:37:26.726Z,0.00
2017-11-12T06:38:26.630Z,0.00
2017-11-12T06:39:26.635Z,0.00
2017-11-12T06:40:27.668Z,0.00
2017-11-12T06:41:26.650Z,0.00
2017-11-12T06:42:26.656Z,0.00
2017-11-12T06:43:26.652Z,0.00
2017-11-12T06:44:26.671Z,0.00
2017-11-12T06:45:26.655Z,0.00
2017-11-12T06:46:27.713Z,0.00
2017-11-12T06:47:26.665Z,0.00
2017-11-12T06:48:26.699Z,0.00
2017-11-12T06:49:26.676Z,0.00
2017-11-12T06:50:26.708Z,0.00
2017-11-12T06:51:26.677Z,0.00
2017-11-12T06:52:26.725Z,0.00
2017-11-12T06:53:26.689Z,0.00
2017-11-12T06:54:26.697Z,0.00
2017-11-12T06:55:26.750Z,0.00
2017-11-12T06:56:26.700Z,0.00
2017-11-12T06:57:26.760Z,0.00
2017-11-12T06:58:26.705Z,0.00
2017-11-12T06:59:26.709Z,0.00
2017-11-12T07:00:26.783Z,0.00
2017-11-12T07:01:26.715Z,0.00
2017-11-12T07:02:27.820Z,0.00
2017-11-12T07:03:26.719Z,0.00
2017-11-12T07:04:26.810Z,0.00
2017-11-12T07:05:26.727Z,0.00
2017-11-12T07:06:32.558Z,0.00
2017-11-12T07:07:26.731Z,0.00
2017-11-12T07:08:26.838Z,0.00
2017-11-12T07:09:26.743Z,0.00
2017-11-12T07:10:26.849Z,0.00
2017-11-12T07:11:26.758Z,0.00
2017-11-12T07:12:28.815Z,0.00
2017-11-12T07:13:26.754Z,0.00
2017-11-12T07:14:26.766Z,0.00
2017-11-12T07:15:27.806Z,0.00
2017-11-12T07:16:26.773Z,0.00
2017-11-12T07:17:26.794Z,0.00
2017-11-12T07:18:26.774Z,0.00
2017-11-12T07:19:26.810Z,0.00
2017-11-12T07:20:26.782Z,0.00
2017-11-12T07:21:26.822Z,0.00
2017-11-12T07:22:26.792Z,0.00
2017-11-12T07:23:26.830Z,0.00
2017-11-12T07:24:26.809Z,0.00
2017-11-12T07:25:26.848Z,0.00
2017-11-12T07:26:26.806Z,0.00
2017-11-12T07:27:28.905Z,0.00
2017-11-12T07:28:26.811Z,5.63
2017-11-12T07:29:26.815Z,5.63
2017-11-12T07:30:26.892Z,5.63
2017-11-12T07:31:26.825Z,5.63
2017-11-12T07:32:36.481Z,5.63
2017-11-12T07:33:37.548Z,5.63
2017-11-12T07:34:36.464Z,5.63
2017-11-12T07:35:37.559Z,5.63
2017-11-12T07:36:36.468Z,5.63
2017-11-12T07:37:36.563Z,5.63
2017-11-12T07:38:36.477Z,5.63
2017-11-12T07:39:36.569Z,5.63
2017-11-12T07:40:36.478Z,5.63
2017-11-12T07:41:36.581Z,5.63
2017-11-12T07:42:36.487Z,5.63
2017-11-12T07:43:36.494Z,5.63
2017-11-12T07:44:36.595Z,5.63
2017-11-12T07:45:36.507Z,5.63
2017-11-12T07:46:37.539Z,5.63
2017-11-12T07:47:36.508Z,5.63
2017-11-12T07:48:38.575Z,11.25
2017-11-12T07:49:36.515Z,11.25
2017-11-12T07:50:36.535Z,11.25
2017-11-12T07:51:36.517Z,11.25
2017-11-12T07:52:37.573Z,11.25
2017-11-12T07:53:36.528Z,11.25
2017-11-12T07:54:37.600Z,11.25
2017-11-12T07:55:36.527Z,11.25
2017-11-12T07:56:36.580Z,5.63
2017-11-12T07:57:36.544Z,5.63
2017-11-12T07:58:36.599Z,5.63
2017-11-12T07:59:36.547Z,5.63
2017-11-12T08:00:36.610Z,5.63
2017-11-12T08:01:36.559Z,5.63
2017-11-12T08:02:37.645Z,5.63
2017-11-12T08:03:36.612Z,5.63
2017-11-12T08:04:37.657Z,5.63
2017-11-12T08:05:36.575Z,5.63
2017-11-12T08:06:37.673Z,5.63
2017-11-12T08:07:36.585Z,11.25
2017-11-12T08:08:36.663Z,11.25
2017-11-12T08:09:36.595Z,11.25
2017-11-12T08:10:36.677Z,11.25
2017-11-12T08:11:36.589Z,11.25
2017-11-12T08:12:36.686Z,11.25
2017-11-12T08:13:36.594Z,11.25
2017-11-12T08:14:37.629Z,11.25
2017-11-12T08:15:36.603Z,11.25
2017-11-12T08:16:38.660Z,11.25
2017-11-12T08:17:36.613Z,11.25
2017-11-12T08:18:37.648Z,5.63
2017-11-12T08:19:36.618Z,5.63
2017-11-12T08:20:37.665Z,5.63
2017-11-12T08:21:36.625Z,5.63
2017-11-12T08:22:36.670Z,5.63
2017-11-12T08:23:36.629Z,5.63
2017-11-12T08:24:42.301Z,5.63
2017-11-12T08:25:36.637Z,5.63
2017-11-12T08:26:41.386Z,5.63
2017-11-12T08:27:36.644Z,5.63
2017-11-12T08:28:36.710Z,11.25
2017-11-12T08:29:36.654Z,11.25
2017-11-12T08:30:37.730Z,11.25
2017-11-12T09:28:37.162Z,22.50
2017-11-12T09:29:37.146Z,22.50
2017-11-12T09:30:37.150Z,22.50
2017-11-12T09:31:37.152Z,16.88
2017-11-12T09:32:37.252Z,16.88
2017-11-12T09:33:37.157Z,16.88
2017-11-12T09:34:37.266Z,16.88
2017-11-12T09:36:02.185Z,16.88
2017-11-12T09:37:02.079Z,22.50
2017-11-12T09:38:02.161Z,22.50
2017-11-12T09:39:02.088Z,22.50
2017-11-12T09:40:02.163Z,22.50
2017-11-12T09:41:02.092Z,22.50
2017-11-12T09:42:02.190Z,22.50
2017-11-12T09:43:02.106Z,22.50
2017-11-12T09:44:02.196Z,22.50
2017-11-12T09:45:02.109Z,22.50
2017-11-12T09:46:02.206Z,22.50
2017-11-12T09:47:02.119Z,22.50
2017-11-12T09:48:03.151Z,28.13
2017-11-12T09:49:02.137Z,28.13
2017-11-12T09:50:02.236Z,28.13
2017-11-12T09:51:02.132Z,28.13
2017-11-12T09:52:02.259Z,28.13
2017-11-12T09:53:02.144Z,28.13
2017-11-12T09:54:02.164Z,22.50
2017-11-12T09:55:02.146Z,22.50
2017-11-12T09:56:02.173Z,22.50
2017-11-12T09:57:02.158Z,22.50
2017-11-12T09:58:02.243Z,28.13
2017-11-12T09:59:02.158Z,28.13
2017-11-12T10:00:02.254Z,28.13
2017-11-12T10:01:02.173Z,22.50
2017-11-12T10:02:03.192Z,22.50
2017-11-12T10:03:02.188Z,22.50
2017-11-12T10:04:02.292Z,22.50
2017-11-12T10:05:02.186Z,22.50
2017-11-12T10:06:02.298Z,28.13
2017-11-12T10:07:02.202Z,28.13
2017-11-12T10:08:02.352Z,33.75
2017-11-12T10:09:02.200Z,33.75
2017-11-12T10:10:03.241Z,33.75
2017-11-12T10:11:02.207Z,33.75
2017-11-12T10:12:02.249Z,39.38
2017-11-12T10:13:02.221Z,39.38
2017-11-12T10:14:02.244Z,33.75
2017-11-12T10:15:02.225Z,33.75
2017-11-12T10:16:02.299Z,33.75
2017-11-12T10:17:02.228Z,33.75
2017-11-12T10:18:02.279Z,33.75
2017-11-12T10:19:02.241Z,33.75
2017-11-12T10:20:02.240Z,33.75
2017-11-12T10:21:02.250Z,33.75
2017-11-12T10:22:02.301Z,33.75
2017-11-12T10:23:02.257Z,28.13
2017-11-12T10:24:02.323Z,22.50
2017-11-12T10:25:02.264Z,22.50
2017-11-12T10:26:02.271Z,22.50
2017-11-12T10:27:02.267Z,16.88
2017-11-12T10:28:02.344Z,16.88
2017-11-12T10:29:02.273Z,16.88
2017-11-12T10:30:02.360Z,16.88
2017-11-12T10:31:02.283Z,16.88
2017-11-12T10:32:02.284Z,16.88
2017-11-12T10:33:02.291Z,16.88
2017-11-12T10:34:02.297Z,16.88
2017-11-12T10:35:03.315Z,16.88
2017-11-12T10:36:02.304Z,16.88
2017-11-12T10:37:02.315Z,11.25
2017-11-12T10:38:02.308Z,11.25
2017-11-12T10:39:02.417Z,5.63
2017-11-12T10:40:02.322Z,11.25
2017-11-12T10:41:02.431Z,11.25
2017-11-12T10:42:02.329Z,11.25
2017-11-12T10:43:02.337Z,11.25
2017-11-12T10:44:02.333Z,11.25
2017-11-12T10:45:02.339Z,16.88
2017-11-12T10:46:02.338Z,16.88
2017-11-12T10:47:02.342Z,22.50
2017-11-12T10:48:02.369Z,22.50
2017-11-12T10:49:02.352Z,22.50
2017-11-12T10:50:02.360Z,22.50
2017-11-12T10:51:02.393Z,22.50
2017-11-12T10:52:02.365Z,22.50
2017-11-12T10:53:02.365Z,22.50
2017-11-12T10:54:02.376Z,28.13
2017-11-12T10:55:02.377Z,28.13
2017-11-12T10:56:03.454Z,28.13
2017-11-12T10:57:02.383Z,28.13
2017-11-12T10:58:03.470Z,33.75
2017-11-12T10:59:02.392Z,39.38
2017-11-12T11:00:03.478Z,45.00
2017-11-12T11:01:02.399Z,45.00
2017-11-12T11:02:02.406Z,45.00
2017-11-12T11:03:02.414Z,50.63
2017-11-12T11:04:02.410Z,50.63
2017-11-12T11:05:02.419Z,50.63
2017-11-12T11:06:02.415Z,45.00
2017-11-12T11:07:02.414Z,45.00
2017-11-12T11:08:02.507Z,45.00
2017-11-12T11:09:02.424Z,39.38
2017-11-12T11:10:03.447Z,39.38
2017-11-12T11:11:02.437Z,39.38
2017-11-12T11:12:02.448Z,39.38
2017-11-12T11:13:02.547Z,39.38
2017-11-12T11:14:02.442Z,39.38
2017-11-12T11:15:04.504Z,39.38
2017-11-12T11:16:02.451Z,39.38
2017-11-12T11:17:03.489Z,39.38
2017-11-12T11:18:02.464Z,39.38
2017-11-12T11:19:02.485Z,39.38
2017-11-12T11:20:02.485Z,39.38
2017-11-12T11:21:02.565Z,39.38
2017-11-12T11:22:02.476Z,39.38
2017-11-12T11:23:02.580Z,33.75
2017-11-12T11:24:02.486Z,33.75
2017-11-12T11:25:02.596Z,33.75
2017-11-12T11:26:02.503Z,33.75
2017-11-12T11:27:02.606Z,33.75
2017-11-12T11:28:02.502Z,33.75
2017-11-12T11:29:03.553Z,33.75
2017-11-12T11:30:02.516Z,33.75
2017-11-12T11:31:02.535Z,33.75
2017-11-12T11:32:02.512Z,33.75
2017-11-12T11:33:02.542Z,33.75
2017-11-12T11:34:02.523Z,33.75
2017-11-12T11:35:02.529Z,28.13
2017-11-12T11:36:02.531Z,28.13
2017-11-12T11:37:02.541Z,28.13
2017-11-12T11:38:02.571Z,28.13
2017-11-12T11:39:02.547Z,28.13
2017-11-12T11:40:02.594Z,28.13
2017-11-12T11:41:02.564Z,28.13
2017-11-12T11:42:02.555Z,28.13
2017-11-12T11:43:02.550Z,33.75
2017-11-12T11:44:02.561Z,33.75
2017-11-12T11:45:02.563Z,33.75
2017-11-12T11:46:02.573Z,33.75
2017-11-12T11:47:02.574Z,33.75
2017-11-12T11:48:02.582Z,33.75
2017-11-12T11:49:02.586Z,33.75
2017-11-12T11:50:02.656Z,33.75
2017-11-12T11:51:02.588Z,33.75
2017-11-12T11:52:02.588Z,33.75
2017-11-12T11:53:02.679Z,39.38
2017-11-12T11:54:02.597Z,39.38
2017-11-12T11:55:03.716Z,39.38
2017-11-12T11:56:02.608Z,39.38
2017-11-12T11:57:02.706Z,33.75
2017-11-12T11:58:02.621Z,33.75
2017-11-12T11:59:02.717Z,33.75
2017-11-12T12:00:02.624Z,33.75
2017-11-12T12:01:02.730Z,33.75
2017-11-12T12:02:02.629Z,33.75
2017-11-12T12:03:02.751Z,33.75
2017-11-12T12:04:02.660Z,33.75
2017-11-12T12:05:02.761Z,33.75
2017-11-12T12:06:02.648Z,33.75
2017-11-12T12:07:02.669Z,33.75
2017-11-12T12:08:02.658Z,33.75
2017-11-12T12:09:02.694Z,33.75
2017-11-12T12:10:02.661Z,33.75
2017-11-12T12:11:02.706Z,33.75
2017-11-12T12:12:02.672Z,33.75
2017-11-12T12:13:02.773Z,33.75
2017-11-12T12:14:02.676Z,28.13
2017-11-12T12:15:02.685Z,28.13
2017-11-12T12:16:02.686Z,28.13
2017-11-12T12:17:02.697Z,22.50
2017-11-12T12:18:02.691Z,22.50
2017-11-12T12:19:03.701Z,22.50
2017-11-12T12:20:02.700Z,16.88
2017-11-12T12:21:02.713Z,22.50
2017-11-12T12:22:02.708Z,22.50
2017-11-12T12:23:02.706Z,22.50
2017-11-12T12:24:02.713Z,28.13
2017-11-12T12:25:03.727Z,28.13
2017-11-12T12:26:02.717Z,28.13
2017-11-12T12:27:02.740Z,28.13
2017-11-12T12:28:02.740Z,33.75
2017-11-12T12:29:02.732Z,33.75
2017-11-12T12:30:02.738Z,33.75
2017-11-12T12:31:07.463Z,33.75
2017-11-12T12:32:02.745Z,28.13
2017-11-12T12:33:03.753Z,28.13
2017-11-12T12:34:02.756Z,28.13
2017-11-12T12:35:02.768Z,33.75
2017-11-12T12:36:02.777Z,33.75
2017-11-12T12:37:03.769Z,39.38
2017-11-12T12:38:02.772Z,45.00
2017-11-12T12:39:02.774Z,39.38
2017-11-12T12:40:02.776Z,39.38
2017-11-12T12:41:02.784Z,39.38
2017-11-12T12:42:02.785Z,39.38
2017-11-12T12:43:02.793Z,50.63
2017-11-12T12:44:02.795Z,50.63
2017-11-12T12:45:02.808Z,50.63
2017-11-12T12:46:02.802Z,50.63
2017-11-12T12:47:02.809Z,45.00
2017-11-12T12:48:02.826Z,45.00
2017-11-12T12:49:02.816Z,45.00
2017-11-12T12:50:02.816Z,39.38
2017-11-12T12:51:02.822Z,28.13
2017-11-12T12:52:02.844Z,22.50
2017-11-12T12:53:02.830Z,22.50
2017-11-12T12:54:02.834Z,16.88
2017-11-12T12:55:02.840Z,16.88
2017-11-12T12:56:02.838Z,11.25
2017-11-12T12:57:02.852Z,11.25
2017-11-12T12:58:02.845Z,11.25
2017-11-12T12:59:02.855Z,11.25
2017-11-12T13:00:02.862Z,5.63
2017-11-12T13:01:02.865Z,11.25
2017-11-12T13:02:02.865Z,11.25
2017-11-12T13:03:02.867Z,11.25
2017-11-12T13:04:02.877Z,11.25
2017-11-12T13:05:09.462Z,11.25
2017-11-12T13:06:02.879Z,16.88
2017-11-12T13:07:02.880Z,16.88
2017-11-12T13:08:02.882Z,16.88
2017-11-12T13:09:02.896Z,11.25
2017-11-12T13:10:02.892Z,11.25
2017-11-12T13:11:02.905Z,11.25
2017-11-12T13:12:02.904Z,11.25
2017-11-12T13:13:02.910Z,11.25
2017-11-12T13:14:02.915Z,11.25
2017-11-12T13:15:02.914Z,5.63
2017-11-12T13:16:02.941Z,5.63
2017-11-12T13:17:02.930Z,5.63
2017-11-12T13:18:02.923Z,5.63
2017-11-12T13:19:02.941Z,5.63
2017-11-12T13:20:02.931Z,11.25
2017-11-12T13:21:02.937Z,11.25
2017-11-12T13:22:02.956Z,11.25
2017-11-12T13:23:02.954Z,16.88
2017-11-12T13:24:02.947Z,22.50
2017-11-12T13:25:04.956Z,28.13
2017-11-12T13:26:02.974Z,28.13
2017-11-12T13:27:02.979Z,22.50
2017-11-12T13:28:02.970Z,22.50
2017-11-12T13:29:02.975Z,16.88
2017-11-12T13:30:02.970Z,16.88
2017-11-12T13:31:02.977Z,11.25
2017-11-12T13:32:02.982Z,16.88
2017-11-12T13:33:02.995Z,16.88
2017-11-12T13:34:02.989Z,22.50
2017-11-12T13:35:02.990Z,28.13
2017-11-12T13:36:02.993Z,33.75
2017-11-12T13:37:02.998Z,33.75
2017-11-12T13:38:03.002Z,33.75
2017-11-12T13:39:03.011Z,28.13
2017-11-12T13:40:03.010Z,22.50
2017-11-12T13:41:03.019Z,22.50
2017-11-12T13:42:03.021Z,22.50
2017-11-12T13:43:03.022Z,22.50
2017-11-12T13:44:03.026Z,16.88
2017-11-12T13:45:07.975Z,16.88
2017-11-12T13:46:03.040Z,22.50
2017-11-12T13:47:04.038Z,22.50
2017-11-12T13:48:03.038Z,22.50
2017-11-12T13:49:04.054Z,28.13
2017-11-12T13:50:03.055Z,33.75
2017-11-12T13:51:04.055Z,33.75
2017-11-12T13:52:03.056Z,39.38
2017-11-12T13:53:04.066Z,39.38
2017-11-12T13:54:03.064Z,33.75
2017-11-12T13:55:04.076Z,28.13
2017-11-12T13:56:03.071Z,22.50
2017-11-12T13:57:03.081Z,16.88
2017-11-12T13:58:03.082Z,16.88
2017-11-12T13:59:04.087Z,16.88
2017-11-12T14:00:03.086Z,16.88
2017-11-12T14:01:05.121Z,16.88
2017-11-12T14:02:03.093Z,16.88
2017-11-12T14:03:03.109Z,16.88
2017-11-12T14:04:03.108Z,16.88
2017-11-12T14:05:03.113Z,16.88
2017-11-12T14:06:03.111Z,16.88